Time;durP1;ratioP1;P1;durP2;ratioP2;P2;SDS_P1;SDS_P2;PMS_P1;PMS_P2;Temp;Humidity;BMP_temperature;BMP_pressure;BME280_temperature;BME280_humidity;BME280_pressure;Samples;Min_cycle;Max_cycle;Signal;HPM_P1;HPM_P2
2021/06/07 00:00:51;;;;;;;;;;;14.10;96.20;;;;;;5093874;28;19934;-69
2021/06/07 00:03:17;;;;;;;;;;;14.10;96.30;;;;;;5096179;28;19922;-68
2021/06/07 00:05:43;;;;;;;;;;;14.10;96.40;;;;;;5095602;28;20003;-68
2021/06/07 00:08:09;;;;;;;;;;;14.10;96.40;;;;;;5073301;28;19912;-68
2021/06/07 00:10:34;;;;;;;;;;;14.00;96.20;;;;;;5103304;28;19920;-69
2021/06/07 00:13:00;;;;;;;;;;;14.10;96.20;;;;;;5095456;28;19959;-69
2021/06/07 00:15:28;;;;;;;;;;;14.10;96.30;;;;;;5092042;28;20480;-69
2021/06/07 00:17:53;;;;;;;;;;;14.10;96.30;;;;;;5093422;28;20007;-68
2021/06/07 00:20:28;;;;;;;;;;;14.10;96.30;;;;;;5096311;28;19991;-69
2021/06/07 00:22:54;;;;;;;;;;;14.10;96.30;;;;;;5094083;28;20220;-69
2021/06/07 00:25:19;;;;;;;;;;;14.10;96.30;;;;;;5094607;28;19916;-69
2021/06/07 00:27:45;;;;;;;;;;;14.00;96.30;;;;;;5094301;28;19912;-69
2021/06/07 00:30:11;;;;;;;;;;;14.00;96.30;;;;;;5095705;28;19921;-69
2021/06/07 00:32:36;;;;;;;;;;;14.00;96.30;;;;;;5089243;28;19918;-69
2021/06/07 00:35:02;;;;;;;;;;;14.00;96.30;;;;;;5077148;28;19912;-69
2021/06/07 00:37:28;;;;;;;;;;;14.10;96.40;;;;;;5091404;28;20015;-69
2021/06/07 00:39:53;;;;;;;;;;;14.00;96.30;;;;;;5093557;28;20233;-69
2021/06/07 00:42:19;;;;;;;;;;;14.00;96.30;;;;;;5093188;28;19916;-68
2021/06/07 00:44:46;;;;;;;;;;;14.00;96.30;;;;;;5092557;28;20219;-68
2021/06/07 00:47:12;;;;;;;;;;;14.00;96.30;;;;;;5095584;28;19919;-69
2021/06/07 00:49:37;;;;;;;;;;;14.00;96.30;;;;;;5096241;28;20003;-68
2021/06/07 00:52:03;;;;;;;;;;;14.00;96.30;;;;;;5094657;28;19912;-69
2021/06/07 00:54:29;;;;;;;;;;;13.90;96.30;;;;;;5094003;28;19919;-68
2021/06/07 00:56:54;;;;;;;;;;;13.90;96.30;;;;;;5088832;28;19965;-69
2021/06/07 00:59:20;;;;;;;;;;;13.90;96.30;;;;;;5095711;28;19927;-69
2021/06/07 01:01:45;;;;;;;;;;;13.90;96.30;;;;;;5096301;28;19912;-68
2021/06/07 01:04:11;;;;;;;;;;;13.90;96.30;;;;;;5095273;28;19938;-68
2021/06/07 01:06:37;;;;;;;;;;;13.90;96.30;;;;;;5091080;28;19919;-70
2021/06/07 01:09:04;;;;;;;;;;;13.90;96.40;;;;;;5092498;28;19921;-69
2021/06/07 01:11:31;;;;;;;;;;;14.00;96.30;;;;;;5089746;28;19935;-70
2021/06/07 01:13:56;;;;;;;;;;;13.90;96.30;;;;;;5094562;28;19920;-69
2021/06/07 01:16:22;;;;;;;;;;;13.90;96.40;;;;;;5092772;28;19927;-70
2021/06/07 01:18:47;;;;;;;;;;;13.90;96.30;;;;;;5093823;28;19919;-70
2021/06/07 01:21:16;;;;;;;;;;;13.90;96.50;;;;;;5093983;28;20312;-70
2021/06/07 01:23:43;;;;;;;;;;;14.00;96.30;;;;;;5083924;28;19923;-70
2021/06/07 01:26:09;;;;;;;;;;;13.90;96.40;;;;;;5093313;28;19916;-70
2021/06/07 01:28:35;;;;;;;;;;;13.90;96.40;;;;;;5094602;28;20422;-69
2021/06/07 01:31:01;;;;;;;;;;;13.90;96.40;;;;;;5090880;28;19920;-70
2021/06/07 01:33:27;;;;;;;;;;;14.00;96.30;;;;;;5086783;28;20370;-70
2021/06/07 01:35:54;;;;;;;;;;;13.90;96.40;;;;;;5079822;28;20414;-69
2021/06/07 01:38:20;;;;;;;;;;;13.90;96.40;;;;;;5093720;28;19924;-70
2021/06/07 01:40:47;;;;;;;;;;;14.00;96.30;;;;;;5094820;28;19965;-70
2021/06/07 01:43:12;;;;;;;;;;;14.00;96.30;;;;;;5095786;28;19917;-70
2021/06/07 01:45:39;;;;;;;;;;;14.00;96.20;;;;;;5093637;28;19966;-70
2021/06/07 01:48:06;;;;;;;;;;;13.90;96.30;;;;;;5095547;28;20308;-70
2021/06/07 01:50:32;;;;;;;;;;;13.90;96.30;;;;;;5093923;28;19954;-69
2021/06/07 01:52:58;;;;;;;;;;;13.90;96.30;;;;;;5093438;28;19921;-70
2021/06/07 01:55:27;;;;;;;;;;;13.90;96.30;;;;;;5094683;28;19916;-69
2021/06/07 01:57:53;;;;;;;;;;;13.90;96.30;;;;;;5093028;28;20323;-70
2021/06/07 02:00:19;;;;;;;;;;;13.90;96.30;;;;;;5094663;28;19912;-69
2021/06/07 02:02:44;;;;;;;;;;;13.90;96.30;;;;;;5094036;28;20309;-70
2021/06/07 02:05:11;;;;;;;;;;;13.80;96.20;;;;;;5093494;28;20231;-69
2021/06/07 02:07:41;;;;;;;;;;;13.90;96.20;;;;;;5092748;28;19916;-70
2021/06/07 02:10:07;;;;;;;;;;;13.90;96.30;;;;;;5094646;28;20241;-69
2021/06/07 02:12:34;;;;;;;;;;;13.90;96.30;;;;;;5091603;28;19920;-70
2021/06/07 02:14:59;;;;;;;;;;;13.90;96.20;;;;;;5092704;28;19924;-70
2021/06/07 02:17:25;;;;;;;;;;;13.90;96.30;;;;;;5092265;28;19963;-69
2021/06/07 02:19:50;;;;;;;;;;;13.80;96.20;;;;;;5093590;28;20370;-70
2021/06/07 02:22:16;;;;;;;;;;;13.90;96.20;;;;;;5075034;28;19927;-70
2021/06/07 02:24:41;;;;;;;;;;;13.90;96.30;;;;;;5069640;28;19928;-70
2021/06/07 02:27:07;;;;;;;;;;;13.90;96.30;;;;;;5093938;28;19912;-70
2021/06/07 02:29:34;;;;;;;;;;;13.80;96.20;;;;;;5094019;28;20346;-69
2021/06/07 02:32:00;;;;;;;;;;;13.80;96.20;;;;;;5093615;28;19932;-69
2021/06/07 02:34:25;;;;;;;;;;;13.80;96.30;;;;;;5093888;28;19916;-69
2021/06/07 02:36:51;;;;;;;;;;;13.80;96.30;;;;;;5092747;28;19943;-69
2021/06/07 02:39:16;;;;;;;;;;;13.80;96.30;;;;;;5073769;28;19981;-69
2021/06/07 02:41:42;;;;;;;;;;;13.80;96.30;;;;;;5094556;28;19974;-69
2021/06/07 02:44:08;;;;;;;;;;;13.80;96.30;;;;;;5074319;28;19939;-70
2021/06/07 02:46:34;;;;;;;;;;;13.80;96.30;;;;;;5092618;28;19912;-71
2021/06/07 02:48:59;;;;;;;;;;;13.80;96.20;;;;;;5094041;28;20421;-71
2021/06/07 02:51:25;;;;;;;;;;;13.80;96.30;;;;;;5093367;28;19919;-70
2021/06/07 02:53:51;;;;;;;;;;;13.80;96.30;;;;;;5094304;28;19919;-70
2021/06/07 02:56:16;;;;;;;;;;;13.80;96.30;;;;;;5092457;28;20018;-70
2021/06/07 02:58:42;;;;;;;;;;;13.80;96.40;;;;;;5056715;28;19973;-69
2021/06/07 03:01:08;;;;;;;;;;;13.80;96.30;;;;;;5086028;28;19913;-70
2021/06/07 03:03:34;;;;;;;;;;;13.90;96.30;;;;;;5094079;28;19916;-69
2021/06/07 03:05:59;;;;;;;;;;;13.90;96.30;;;;;;5092745;28;19912;-69
2021/06/07 03:08:27;;;;;;;;;;;13.80;96.30;;;;;;5086420;28;19912;-69
2021/06/07 03:10:54;;;;;;;;;;;13.80;96.30;;;;;;5086375;28;19913;-70
2021/06/07 03:13:20;;;;;;;;;;;13.80;96.20;;;;;;5086829;28;20374;-69
2021/06/07 03:15:47;;;;;;;;;;;13.80;96.20;;;;;;5092529;28;19920;-70
2021/06/07 03:18:12;;;;;;;;;;;13.80;96.30;;;;;;5090554;28;19912;-70
2021/06/07 03:20:38;;;;;;;;;;;13.80;96.30;;;;;;5091149;28;20270;-69
2021/06/07 03:23:05;;;;;;;;;;;13.80;96.20;;;;;;5091616;28;19956;-69
2021/06/07 03:25:32;;;;;;;;;;;13.80;96.30;;;;;;5093640;28;19935;-70
2021/06/07 03:27:58;;;;;;;;;;;13.80;96.30;;;;;;5090114;28;19913;-70
2021/06/07 03:30:23;;;;;;;;;;;13.70;96.20;;;;;;5087901;28;19923;-70
2021/06/07 03:32:49;;;;;;;;;;;13.70;96.20;;;;;;5083024;28;19940;-69
2021/06/07 03:35:16;;;;;;;;;;;13.70;96.20;;;;;;5077946;28;19916;-69
2021/06/07 03:37:42;;;;;;;;;;;13.70;96.30;;;;;;5096188;28;19912;-69
2021/06/07 03:40:09;;;;;;;;;;;13.70;96.30;;;;;;5076109;28;19912;-70
2021/06/07 03:42:35;;;;;;;;;;;13.70;96.30;;;;;;5095901;28;20054;-70
2021/06/07 03:45:01;;;;;;;;;;;13.70;96.30;;;;;;5090984;28;19916;-70
2021/06/07 03:47:26;;;;;;;;;;;13.70;96.20;;;;;;5089381;28;19935;-69
2021/06/07 03:49:52;;;;;;;;;;;13.70;96.30;;;;;;5087891;28;19991;-70
2021/06/07 03:52:17;;;;;;;;;;;13.70;96.30;;;;;;5095732;28;19920;-70
2021/06/07 03:54:43;;;;;;;;;;;13.70;96.30;;;;;;5096570;28;19927;-69
2021/06/07 03:57:08;;;;;;;;;;;13.70;96.30;;;;;;5075908;28;19937;-69
2021/06/07 03:59:35;;;;;;;;;;;13.70;96.30;;;;;;5096002;28;20385;-70
2021/06/07 04:02:03;;;;;;;;;;;13.70;96.30;;;;;;5096788;28;19915;-70
2021/06/07 04:04:29;;;;;;;;;;;13.70;96.30;;;;;;5097015;28;20218;-70
2021/06/07 04:06:55;;;;;;;;;;;13.80;96.30;;;;;;5094803;28;19957;-71
2021/06/07 04:09:21;;;;;;;;;;;13.80;96.40;;;;;;5096604;28;19916;-70
2021/06/07 04:11:48;;;;;;;;;;;13.70;96.30;;;;;;5104092;28;19927;-70
2021/06/07 04:14:13;;;;;;;;;;;13.70;96.30;;;;;;5095431;28;19951;-70
2021/06/07 04:16:39;;;;;;;;;;;13.70;96.30;;;;;;5088703;28;19952;-70
2021/06/07 04:19:04;;;;;;;;;;;13.70;96.20;;;;;;5089971;28;20007;-70
2021/06/07 04:21:30;;;;;;;;;;;13.70;96.30;;;;;;5091236;28;19951;-70
2021/06/07 04:23:56;;;;;;;;;;;13.80;96.30;;;;;;5093438;28;19924;-71
2021/06/07 04:26:21;;;;;;;;;;;13.80;96.30;;;;;;5091208;28;19924;-70
2021/06/07 04:28:47;;;;;;;;;;;13.80;96.30;;;;;;5091812;28;20312;-70
2021/06/07 04:31:12;;;;;;;;;;;13.80;96.30;;;;;;5090201;28;20608;-70
2021/06/07 04:33:38;;;;;;;;;;;13.80;96.20;;;;;;5092557;28;19918;-70
2021/06/07 04:36:04;;;;;;;;;;;13.80;96.30;;;;;;5075673;28;19970;-70
2021/06/07 04:38:29;;;;;;;;;;;13.80;96.20;;;;;;5075036;28;19931;-70
2021/06/07 04:40:55;;;;;;;;;;;13.80;96.30;;;;;;5093892;28;19919;-70
2021/06/07 04:43:20;;;;;;;;;;;13.80;96.30;;;;;;5094155;28;20224;-70
2021/06/07 04:45:46;;;;;;;;;;;13.90;96.30;;;;;;5096213;28;19955;-70
2021/06/07 04:48:12;;;;;;;;;;;13.80;96.20;;;;;;5091887;28;20000;-70
2021/06/07 04:50:37;;;;;;;;;;;13.80;96.30;;;;;;5093971;28;20317;-70
2021/06/07 04:53:04;;;;;;;;;;;13.80;96.30;;;;;;5091006;28;19912;-69
2021/06/07 04:55:35;;;;;;;;;;;13.80;96.30;;;;;;5095412;28;19919;-71
2021/06/07 04:58:03;;;;;;;;;;;13.90;96.20;;;;;;5089089;28;20394;-70
2021/06/07 05:00:29;;;;;;;;;;;13.90;96.30;;;;;;5090250;28;19999;-70
2021/06/07 05:02:54;;;;;;;;;;;13.90;96.30;;;;;;5076346;28;20019;-70
2021/06/07 05:05:20;;;;;;;;;;;13.90;96.20;;;;;;5093041;28;19923;-70
2021/06/07 05:07:46;;;;;;;;;;;13.80;95.70;;;;;;5091926;28;19991;-71
2021/06/07 05:10:12;;;;;;;;;;;13.90;95.80;;;;;;5091774;28;19920;-70
2021/06/07 05:12:38;;;;;;;;;;;13.90;95.80;;;;;;5094261;28;19923;-70
2021/06/07 05:15:05;;;;;;;;;;;13.90;95.80;;;;;;5077125;28;20008;-70
2021/06/07 05:17:30;;;;;;;;;;;13.90;95.70;;;;;;5095368;28;19916;-70
2021/06/07 05:19:56;;;;;;;;;;;13.80;95.60;;;;;;5093559;28;19915;-70
2021/06/07 05:22:21;;;;;;;;;;;13.80;95.70;;;;;;5093414;28;19912;-70
2021/06/07 05:24:47;;;;;;;;;;;13.80;95.70;;;;;;5095423;28;19908;-70
2021/06/07 05:27:13;;;;;;;;;;;13.90;95.70;;;;;;5094306;28;19923;-70
2021/06/07 05:29:39;;;;;;;;;;;13.90;95.80;;;;;;5095998;28;19912;-70
2021/06/07 05:32:05;;;;;;;;;;;14.00;95.60;;;;;;5095351;28;19912;-70
2021/06/07 05:34:30;;;;;;;;;;;14.00;95.60;;;;;;5092834;28;19927;-70
2021/06/07 05:36:56;;;;;;;;;;;13.90;95.60;;;;;;5091294;28;19908;-70
2021/06/07 05:39:21;;;;;;;;;;;14.00;95.60;;;;;;5084549;28;19989;-71
2021/06/07 05:41:50;;;;;;;;;;;13.90;95.70;;;;;;5102086;28;19931;-71
2021/06/07 05:44:15;;;;;;;;;;;13.90;95.40;;;;;;5094913;28;19912;-70
2021/06/07 05:46:41;;;;;;;;;;;13.90;95.40;;;;;;5088449;28;19927;-71
2021/06/07 05:49:06;;;;;;;;;;;14.00;95.50;;;;;;5094640;28;19912;-71
2021/06/07 05:51:33;;;;;;;;;;;14.00;95.50;;;;;;5093490;28;19963;-71
2021/06/07 05:53:58;;;;;;;;;;;14.00;95.40;;;;;;5063850;28;19936;-71
2021/06/07 05:56:24;;;;;;;;;;;13.90;95.40;;;;;;5092136;28;20028;-70
2021/06/07 05:58:51;;;;;;;;;;;13.90;95.30;;;;;;5095328;28;19912;-71
2021/06/07 06:01:16;;;;;;;;;;;14.00;95.40;;;;;;5094884;28;19971;-71
2021/06/07 06:03:42;;;;;;;;;;;14.00;95.40;;;;;;5087079;28;19919;-70
2021/06/07 06:06:07;;;;;;;;;;;14.00;95.40;;;;;;5093660;28;19916;-70
2021/06/07 06:08:33;;;;;;;;;;;14.00;95.30;;;;;;5094260;28;19919;-70
2021/06/07 06:10:58;;;;;;;;;;;14.00;95.30;;;;;;5094803;28;19919;-70
2021/06/07 06:13:24;;;;;;;;;;;14.00;95.30;;;;;;5094298;28;20002;-70
2021/06/07 06:15:50;;;;;;;;;;;14.00;95.30;;;;;;5093477;28;19931;-70
2021/06/07 06:18:15;;;;;;;;;;;14.10;95.40;;;;;;5091625;28;20335;-70
2021/06/07 06:20:41;;;;;;;;;;;14.00;95.30;;;;;;5094667;28;20011;-70
2021/06/07 06:23:06;;;;;;;;;;;14.10;95.30;;;;;;5093862;28;19916;-70
2021/06/07 06:25:32;;;;;;;;;;;14.00;95.10;;;;;;5075629;28;19916;-70
2021/06/07 06:27:58;;;;;;;;;;;14.00;95.10;;;;;;5095084;28;20301;-70
2021/06/07 06:30:25;;;;;;;;;;;13.90;95.10;;;;;;5094669;28;20297;-70
2021/06/07 06:32:53;;;;;;;;;;;14.00;95.20;;;;;;5093234;28;19912;-70
2021/06/07 06:35:19;;;;;;;;;;;14.00;95.20;;;;;;5094050;28;19947;-71
2021/06/07 06:37:44;;;;;;;;;;;14.00;95.30;;;;;;5088339;28;19951;-70
2021/06/07 06:40:14;;;;;;;;;;;14.00;95.20;;;;;;5094918;28;19923;-71
2021/06/07 06:42:40;;;;;;;;;;;14.00;95.20;;;;;;5093750;28;19916;-70
2021/06/07 06:45:06;;;;;;;;;;;14.10;95.20;;;;;;5094562;28;20058;-70
2021/06/07 06:47:32;;;;;;;;;;;14.20;95.30;;;;;;5092224;28;20258;-70
2021/06/07 06:49:58;;;;;;;;;;;14.10;95.10;;;;;;5094438;28;19999;-70
2021/06/07 06:52:25;;;;;;;;;;;14.10;95.10;;;;;;5093481;28;19916;-71
2021/06/07 06:54:50;;;;;;;;;;;14.00;95.20;;;;;;5092759;28;19912;-70
2021/06/07 06:57:16;;;;;;;;;;;13.90;95.10;;;;;;5094172;28;19912;-70
2021/06/07 06:59:41;;;;;;;;;;;14.00;95.10;;;;;;5093863;28;19934;-70
2021/06/07 07:02:07;;;;;;;;;;;14.10;95.20;;;;;;5076144;28;20240;-70
2021/06/07 07:04:32;;;;;;;;;;;14.10;95.20;;;;;;5096112;28;19916;-70
2021/06/07 07:06:58;;;;;;;;;;;14.10;95.10;;;;;;5095471;28;20036;-71
2021/06/07 07:09:23;;;;;;;;;;;14.10;95.10;;;;;;5096256;28;19919;-70
2021/06/07 07:11:50;;;;;;;;;;;14.20;95.20;;;;;;5097258;28;19912;-70
2021/06/07 07:14:15;;;;;;;;;;;14.10;95.10;;;;;;5098548;28;19912;-70
2021/06/07 07:16:41;;;;;;;;;;;14.10;95.10;;;;;;5092555;28;19920;-70
2021/06/07 07:19:06;;;;;;;;;;;14.20;95.20;;;;;;5095976;28;19973;-70
2021/06/07 07:21:32;;;;;;;;;;;14.20;95.10;;;;;;5097195;28;19923;-71
2021/06/07 07:23:57;;;;;;;;;;;14.30;95.10;;;;;;5097445;28;20218;-70
2021/06/07 07:26:23;;;;;;;;;;;14.30;95.10;;;;;;5097883;28;19912;-70
2021/06/07 07:28:48;;;;;;;;;;;14.40;95.10;;;;;;5097975;28;19912;-70
2021/06/07 07:31:14;;;;;;;;;;;14.40;95.10;;;;;;5096850;28;19965;-70
2021/06/07 07:33:45;;;;;;;;;;;14.50;95.10;;;;;;5092394;28;19916;-70
2021/06/07 07:36:11;;;;;;;;;;;14.40;95.20;;;;;;5093191;28;19955;-70
2021/06/07 07:38:37;;;;;;;;;;;14.40;95.40;;;;;;5097374;28;20459;-70
2021/06/07 07:41:03;;;;;;;;;;;14.40;95.50;;;;;;5086572;28;19956;-70
2021/06/07 07:43:29;;;;;;;;;;;14.40;95.30;;;;;;5097396;28;19916;-70
2021/06/07 07:45:54;;;;;;;;;;;14.40;95.80;;;;;;5079270;28;19916;-70
2021/06/07 07:48:20;;;;;;;;;;;14.50;95.40;;;;;;5091935;28;19916;-70
2021/06/07 07:50:47;;;;;;;;;;;14.50;95.80;;;;;;5078858;28;19948;-70
2021/06/07 07:53:13;;;;;;;;;;;14.50;95.70;;;;;;5095773;28;20010;-70
2021/06/07 07:55:38;;;;;;;;;;;14.60;95.90;;;;;;5089809;28;20308;-70
2021/06/07 07:58:07;;;;;;;;;;;14.60;95.80;;;;;;5097796;28;20003;-70
2021/06/07 08:00:33;;;;;;;;;;;14.50;96.10;;;;;;5096655;28;19920;-70
2021/06/07 08:02:59;;;;;;;;;;;14.50;96.00;;;;;;5096900;28;19916;-70
2021/06/07 08:05:25;;;;;;;;;;;14.60;95.80;;;;;;5096860;28;19930;-70
2021/06/07 08:07:50;;;;;;;;;;;14.60;96.00;;;;;;5078382;28;20321;-70
2021/06/07 08:10:16;;;;;;;;;;;14.60;95.90;;;;;;5096099;28;20003;-70
2021/06/07 08:12:42;;;;;;;;;;;14.70;96.00;;;;;;5073371;28;19924;-70
2021/06/07 08:15:08;;;;;;;;;;;14.70;96.10;;;;;;5096758;28;19920;-70
2021/06/07 08:17:34;;;;;;;;;;;14.60;96.10;;;;;;5089470;28;19952;-70
2021/06/07 08:19:59;;;;;;;;;;;14.60;96.30;;;;;;5097311;28;19950;-70
2021/06/07 08:22:25;;;;;;;;;;;14.70;96.10;;;;;;5096077;28;20058;-69
2021/06/07 08:24:50;;;;;;;;;;;14.70;96.20;;;;;;5078228;28;19940;-69
2021/06/07 08:27:16;;;;;;;;;;;14.70;96.20;;;;;;5096963;28;19920;-69
2021/06/07 08:29:41;;;;;;;;;;;14.80;96.40;;;;;;5096271;28;19912;-70
2021/06/07 08:32:07;;;;;;;;;;;14.80;96.70;;;;;;5096063;28;19912;-69
2021/06/07 08:34:33;;;;;;;;;;;14.80;96.90;;;;;;5097170;28;19955;-71
2021/06/07 08:36:59;;;;;;;;;;;14.80;96.90;;;;;;5094963;28;19912;-70
2021/06/07 08:39:24;;;;;;;;;;;15.00;96.40;;;;;;5096457;28;19919;-71
2021/06/07 08:41:50;;;;;;;;;;;15.10;96.60;;;;;;5095634;28;19973;-70
2021/06/07 08:44:16;;;;;;;;;;;15.20;97.20;;;;;;5095317;28;19956;-70
2021/06/07 08:46:42;;;;;;;;;;;15.20;97.30;;;;;;5093680;28;19960;-70
2021/06/07 08:49:07;;;;;;;;;;;15.30;97.20;;;;;;5095329;28;19912;-70
2021/06/07 08:51:33;;;;;;;;;;;15.40;97.90;;;;;;5095621;28;20010;-70
2021/06/07 08:53:58;;;;;;;;;;;15.40;97.90;;;;;;5096044;28;19982;-70
2021/06/07 08:56:24;;;;;;;;;;;15.30;98.00;;;;;;5078606;28;19952;-70
2021/06/07 08:58:50;;;;;;;;;;;15.30;98.00;;;;;;5096486;28;19916;-70
2021/06/07 09:01:15;;;;;;;;;;;15.20;97.90;;;;;;5093393;28;19916;-70
2021/06/07 09:03:41;;;;;;;;;;;15.20;97.90;;;;;;5079133;28;19923;-70
2021/06/07 09:06:07;;;;;;;;;;;15.20;97.90;;;;;;5072014;28;19916;-70
2021/06/07 09:08:34;;;;;;;;;;;15.30;97.90;;;;;;5095515;28;19912;-70
2021/06/07 09:11:11;;;;;;;;;;;15.30;97.50;;;;;;5096135;28;19916;-70
2021/06/07 09:13:37;;;;;;;;;;;15.50;97.90;;;;;;5089248;28;19913;-70
2021/06/07 09:16:03;;;;;;;;;;;15.60;97.80;;;;;;5094596;28;20342;-70
2021/06/07 09:18:29;;;;;;;;;;;15.80;98.00;;;;;;5093625;28;20243;-70
2021/06/07 09:21:01;;;;;;;;;;;15.80;98.00;;;;;;5094534;28;20011;-70
2021/06/07 09:23:37;;;;;;;;;;;16.00;98.00;;;;;;5077157;28;20007;-70
2021/06/07 09:26:02;;;;;;;;;;;15.90;98.00;;;;;;5077668;28;19959;-70
2021/06/07 09:28:28;;;;;;;;;;;15.80;98.00;;;;;;5088396;28;19935;-69
2021/06/07 09:30:54;;;;;;;;;;;15.80;98.00;;;;;;5094356;28;19952;-70
2021/06/07 09:33:37;;;;;;;;;;;15.90;98.00;;;;;;5091395;28;19916;-70
2021/06/07 09:36:35;;;;;;;;;;;15.80;98.00;;;;;;5092886;28;19981;-70
2021/06/07 09:39:14;;;;;;;;;;;15.80;98.00;;;;;;5049741;28;19920;-70
2021/06/07 09:41:46;;;;;;;;;;;15.70;98.00;;;;;;5094373;28;19916;-70
2021/06/07 09:44:19;;;;;;;;;;;15.70;98.00;;;;;;5091804;28;19924;-70
2021/06/07 09:46:46;;;;;;;;;;;15.70;98.00;;;;;;5094675;28;19916;-70
2021/06/07 09:49:13;;;;;;;;;;;15.80;98.00;;;;;;5092309;28;19912;-70
2021/06/07 09:51:40;;;;;;;;;;;15.90;98.00;;;;;;5093645;28;19916;-70
2021/06/07 09:54:07;;;;;;;;;;;16.10;98.00;;;;;;5094865;28;19916;-70
2021/06/07 09:56:46;;;;;;;;;;;16.20;98.00;;;;;;5095437;28;19912;-70
2021/06/07 09:59:24;;;;;;;;;;;16.00;98.00;;;;;;5095444;28;20451;-70
2021/06/07 10:01:50;;;;;;;;;;;16.00;98.00;;;;;;5094580;28;19916;-70
2021/06/07 10:04:15;;;;;;;;;;;16.10;98.00;;;;;;5095211;28;19923;-70
2021/06/07 10:06:42;;;;;;;;;;;16.20;98.00;;;;;;5093764;28;20373;-70
2021/06/07 10:09:08;;;;;;;;;;;16.10;98.00;;;;;;5094547;28;20059;-70
2021/06/07 10:11:36;;;;;;;;;;;16.40;98.00;;;;;;5095033;28;19919;-70
2021/06/07 10:14:15;;;;;;;;;;;16.70;98.00;;;;;;5094250;28;19951;-70
2021/06/07 10:16:57;;;;;;;;;;;16.70;98.00;;;;;;5094673;28;19922;-71
2021/06/07 10:22:08;;;;;;;;;;;16.50;98.00;;;;;;5089939;28;19935;-70
2021/06/07 10:24:34;;;;;;;;;;;16.50;98.00;;;;;;5094794;28;19916;-70
2021/06/07 10:26:59;;;;;;;;;;;16.40;98.00;;;;;;5093881;28;19994;-70
2021/06/07 10:29:35;;;;;;;;;;;16.30;98.00;;;;;;5093990;28;19926;-70
2021/06/07 10:32:05;;;;;;;;;;;16.30;98.00;;;;;;5095142;28;19912;-70
2021/06/07 10:34:44;;;;;;;;;;;16.40;98.00;;;;;;5094601;28;19912;-70
2021/06/07 10:37:10;;;;;;;;;;;16.50;98.00;;;;;;5092505;28;19961;-70
2021/06/07 10:39:35;;;;;;;;;;;16.40;98.00;;;;;;5086790;28;19912;-70
2021/06/07 10:42:10;;;;;;;;;;;16.50;98.00;;;;;;5093901;28;19912;-70
2021/06/07 10:44:47;;;;;;;;;;;16.60;98.00;;;;;;5094357;28;20042;-70
2021/06/07 10:47:14;;;;;;;;;;;16.70;98.00;;;;;;5093751;28;19916;-70
2021/06/07 10:49:40;;;;;;;;;;;16.60;98.00;;;;;;5075507;28;19928;-70
2021/06/07 10:52:07;;;;;;;;;;;16.70;98.00;;;;;;5093601;28;19912;-70
2021/06/07 10:54:34;;;;;;;;;;;16.70;98.00;;;;;;5093565;28;20313;-70
2021/06/07 10:57:18;;;;;;;;;;;16.60;98.00;;;;;;5093971;28;20006;-70
2021/06/07 10:59:45;;;;;;;;;;;16.50;98.00;;;;;;5091809;28;19950;-70
2021/06/07 11:02:14;;;;;;;;;;;16.50;98.00;;;;;;5094670;28;19981;-70
2021/06/07 11:04:40;;;;;;;;;;;16.40;98.00;;;;;;5093430;28;19927;-70
2021/06/07 11:07:12;;;;;;;;;;;16.50;98.00;;;;;;5093178;28;19912;-70
2021/06/07 11:09:57;;;;;;;;;;;16.50;98.00;;;;;;5092713;28;19920;-70
2021/06/07 11:12:33;;;;;;;;;;;16.60;98.00;;;;;;5091548;28;19916;-70
2021/06/07 11:15:09;;;;;;;;;;;16.70;98.00;;;;;;5093989;28;19951;-70
2021/06/07 11:17:35;;;;;;;;;;;16.80;98.00;;;;;;5091065;28;19923;-70
2021/06/07 11:20:01;;;;;;;;;;;16.80;98.00;;;;;;5088417;28;20008;-69
2021/06/07 11:22:26;;;;;;;;;;;16.70;98.00;;;;;;5096270;28;19965;-70
2021/06/07 11:24:52;;;;;;;;;;;16.50;98.00;;;;;;5093639;28;19916;-70
2021/06/07 11:27:34;;;;;;;;;;;16.60;98.00;;;;;;5088133;28;19912;-72
2021/06/07 11:30:12;;;;;;;;;;;16.70;98.00;;;;;;5094041;28;19949;-71
2021/06/07 11:32:39;;;;;;;;;;;16.80;98.00;;;;;;5093060;28;19962;-71
2021/06/07 11:35:06;;;;;;;;;;;16.90;98.00;;;;;;5075830;28;19922;-70
2021/06/07 11:37:33;;;;;;;;;;;16.90;98.00;;;;;;5080282;28;19997;-70
2021/06/07 11:39:59;;;;;;;;;;;16.80;98.00;;;;;;5089833;28;20320;-71
2021/06/07 11:42:27;;;;;;;;;;;16.80;98.00;;;;;;5079800;28;19912;-70
2021/06/07 11:44:55;;;;;;;;;;;16.80;98.00;;;;;;5092333;28;20596;-70
2021/06/07 11:47:49;;;;;;;;;;;16.80;98.00;;;;;;5092658;28;19916;-70
2021/06/07 11:50:33;;;;;;;;;;;17.00;98.00;;;;;;5084462;28;20168;-70
2021/06/07 11:53:12;;;;;;;;;;;17.20;98.00;;;;;;5095197;28;19912;-70
2021/06/07 11:55:38;;;;;;;;;;;17.40;98.00;;;;;;5091425;28;19919;-70
2021/06/07 11:58:04;;;;;;;;;;;17.10;97.60;;;;;;5096702;28;19916;-70
2021/06/07 12:00:32;;;;;;;;;;;17.00;97.70;;;;;;5096677;28;19916;-70
2021/06/07 12:03:03;;;;;;;;;;;17.00;98.00;;;;;;5095833;28;19931;-71
2021/06/07 12:05:29;;;;;;;;;;;16.90;98.00;;;;;;5097091;28;22208;-70
2021/06/07 12:08:02;;;;;;;;;;;17.00;98.00;;;;;;5095105;28;19912;-70
2021/06/07 12:10:27;;;;;;;;;;;17.00;98.00;;;;;;5092069;28;19917;-71
2021/06/07 12:12:53;;;;;;;;;;;17.00;98.00;;;;;;5094937;28;19923;-70
2021/06/07 12:15:19;;;;;;;;;;;17.00;98.00;;;;;;5095397;28;19931;-71
2021/06/07 12:17:45;;;;;;;;;;;17.10;98.00;;;;;;5075490;28;19947;-69
2021/06/07 12:20:12;;;;;;;;;;;17.00;97.90;;;;;;5066251;28;19909;-70
2021/06/07 12:22:39;;;;;;;;;;;16.80;98.00;;;;;;5094639;28;20010;-69
2021/06/07 12:25:28;;;;;;;;;;;16.70;98.00;;;;;;5094164;28;19966;-70
2021/06/07 12:28:17;;;;;;;;;;;16.60;98.00;;;;;;5090265;28;19913;-68
2021/06/07 12:30:47;;;;;;;;;;;16.50;98.00;;;;;;5095255;28;19938;-69
2021/06/07 12:33:13;;;;;;;;;;;16.30;98.00;;;;;;5096684;28;19919;-69
2021/06/07 12:35:39;;;;;;;;;;;16.30;98.00;;;;;;5095210;28;20282;-69
2021/06/07 12:38:05;;;;;;;;;;;16.50;98.00;;;;;;5094656;28;20005;-69
2021/06/07 12:40:34;;;;;;;;;;;16.40;98.00;;;;;;5095312;28;19908;-69
2021/06/07 12:42:59;;;;;;;;;;;16.50;98.00;;;;;;5088390;28;20363;-69
2021/06/07 12:45:33;;;;;;;;;;;16.50;98.00;;;;;;5078108;28;19912;-68
2021/06/07 12:48:11;;;;;;;;;;;16.50;98.00;;;;;;5095277;28;19912;-68
2021/06/07 12:50:37;;;;;;;;;;;16.60;98.00;;;;;;5095929;28;19981;-69
2021/06/07 12:53:03;;;;;;;;;;;16.70;98.00;;;;;;5093296;28;19924;-69
2021/06/07 12:55:32;;;;;;;;;;;16.70;98.00;;;;;;5093903;28;20034;-69
2021/06/07 12:58:03;;;;;;;;;;;16.80;98.00;;;;;;5095375;28;19995;-68
2021/06/07 13:00:37;;;;;;;;;;;16.90;98.00;;;;;;5071449;28;19913;-68
2021/06/07 13:03:14;;;;;;;;;;;16.90;98.00;;;;;;5075120;28;19999;-69
2021/06/07 13:05:41;;;;;;;;;;;17.00;98.00;;;;;;5097312;28;19915;-69
2021/06/07 13:08:10;;;;;;;;;;;17.20;98.00;;;;;;5094001;28;20005;-68
2021/06/07 13:10:45;;;;;;;;;;;17.30;98.00;;;;;;5090820;28;19965;-69
2021/06/07 13:13:18;;;;;;;;;;;17.20;98.00;;;;;;5074973;28;19927;-69
2021/06/07 13:15:43;;;;;;;;;;;17.10;98.00;;;;;;5089763;28;19920;-68
2021/06/07 13:18:09;;;;;;;;;;;17.00;98.00;;;;;;5093537;28;19923;-68
2021/06/07 13:20:34;;;;;;;;;;;16.90;98.00;;;;;;5094567;28;19926;-68
2021/06/07 13:23:00;;;;;;;;;;;16.90;98.00;;;;;;5092474;28;19946;-69
2021/06/07 13:25:30;;;;;;;;;;;16.80;98.00;;;;;;5093235;28;19913;-68
2021/06/07 13:28:14;;;;;;;;;;;16.90;98.00;;;;;;5093319;28;20080;-69
2021/06/07 13:30:40;;;;;;;;;;;16.80;98.00;;;;;;5090922;28;19920;-69
2021/06/07 13:33:06;;;;;;;;;;;16.70;98.00;;;;;;5083539;28;20288;-69
2021/06/07 13:35:31;;;;;;;;;;;16.80;98.00;;;;;;5059972;28;20014;-69
2021/06/07 13:37:57;;;;;;;;;;;16.80;98.00;;;;;;5094286;28;20042;-70
2021/06/07 13:40:27;;;;;;;;;;;16.70;98.00;;;;;;5097019;28;19912;-69
2021/06/07 13:42:54;;;;;;;;;;;16.70;98.00;;;;;;5094439;28;19924;-69
2021/06/07 13:45:36;;;;;;;;;;;16.70;98.00;;;;;;5091238;28;19981;-69
2021/06/07 13:48:23;;;;;;;;;;;16.80;98.00;;;;;;5088098;28;19912;-68
2021/06/07 13:50:59;;;;;;;;;;;16.80;98.00;;;;;;5092602;28;19912;-69
2021/06/07 13:53:33;;;;;;;;;;;16.70;98.00;;;;;;5090359;28;19916;-69
2021/06/07 13:56:03;;;;;;;;;;;16.60;98.00;;;;;;5068789;28;20225;-70
2021/06/07 13:58:51;;;;;;;;;;;16.40;98.00;;;;;;5073977;28;19919;-69
2021/06/07 14:01:19;;;;;;;;;;;16.30;98.00;;;;;;5093681;28;19912;-70
2021/06/07 14:03:46;;;;;;;;;;;16.30;98.00;;;;;;5090279;28;19916;-70
2021/06/07 14:06:13;;;;;;;;;;;16.40;98.00;;;;;;5093492;28;20758;-70
2021/06/07 14:08:40;;;;;;;;;;;16.40;98.00;;;;;;5094769;28;20254;-70
2021/06/07 14:11:09;;;;;;;;;;;16.40;98.00;;;;;;5089764;28;20321;-70
2021/06/07 14:13:35;;;;;;;;;;;16.40;98.00;;;;;;5092790;28;19947;-70
2021/06/07 14:16:00;;;;;;;;;;;16.40;98.00;;;;;;5094721;28;19959;-70
2021/06/07 14:18:26;;;;;;;;;;;16.40;98.00;;;;;;5093246;28;19920;-69
2021/06/07 14:20:52;;;;;;;;;;;16.50;98.00;;;;;;5093686;28;20237;-70